createdAt,value
2017-12-13T00:00:57.590Z,992.73
2017-12-13T00:01:36.574Z,992.67
2017-12-13T00:02:57.569Z,992.68
2017-12-13T00:03:36.552Z,992.68
2017-12-13T00:04:36.548Z,992.64
2017-12-13T00:05:57.546Z,992.62
2017-12-13T00:06:36.540Z,992.59
2017-12-13T00:07:57.532Z,992.56
2017-12-13T00:08:36.514Z,992.56
2017-12-13T00:09:36.512Z,992.59
2017-12-13T00:10:57.511Z,992.58
2017-12-13T00:11:36.500Z,992.57
2017-12-13T00:12:57.494Z,992.62
2017-12-13T00:13:36.475Z,992.63
2017-12-13T00:14:36.481Z,992.57
2017-12-13T00:15:57.474Z,992.62
2017-12-13T00:16:36.458Z,992.61
2017-12-13T00:17:57.460Z,992.60
2017-12-13T00:18:36.438Z,992.63
2017-12-13T00:19:36.435Z,992.64
2017-12-13T00:20:57.431Z,992.65
2017-12-13T00:21:36.420Z,992.64
2017-12-13T00:22:57.419Z,992.61
2017-12-13T00:23:36.408Z,992.64
2017-12-13T00:24:36.397Z,992.58
2017-12-13T00:25:57.391Z,992.56
2017-12-13T00:26:36.385Z,992.55
2017-12-13T00:27:57.385Z,992.56
2017-12-13T00:28:36.395Z,992.58
2017-12-13T00:29:36.358Z,992.60
2017-12-13T00:30:57.349Z,992.61
2017-12-13T00:31:36.339Z,992.68
2017-12-13T00:32:57.339Z,992.63
2017-12-13T00:33:36.332Z,992.57
2017-12-13T00:34:36.346Z,992.57
2017-12-13T00:35:57.323Z,992.49
2017-12-13T00:36:36.307Z,992.51
2017-12-13T00:37:57.304Z,992.52
2017-12-13T00:38:36.286Z,992.49
2017-12-13T00:39:36.282Z,992.54
2017-12-13T00:40:57.283Z,992.51
2017-12-13T00:41:36.268Z,992.56
2017-12-13T00:42:57.265Z,992.58
2017-12-13T00:43:36.257Z,992.59
2017-12-13T00:44:36.242Z,992.56
2017-12-13T00:45:57.252Z,992.59
2017-12-13T00:46:36.223Z,992.62
2017-12-13T00:47:57.221Z,992.58
2017-12-13T00:48:36.212Z,992.63
2017-12-13T00:49:36.197Z,992.66
2017-12-13T00:50:57.202Z,992.61
2017-12-13T00:51:36.175Z,992.64
2017-12-13T00:52:57.187Z,992.64
2017-12-13T00:53:36.181Z,992.62
2017-12-13T00:54:36.167Z,992.64
2017-12-13T00:55:57.167Z,992.62
2017-12-13T00:56:36.147Z,992.65
2017-12-13T00:57:57.152Z,992.60
2017-12-13T00:58:36.137Z,992.59
2017-12-13T00:59:36.132Z,992.56
2017-12-13T01:00:57.130Z,992.53
2017-12-13T01:01:36.107Z,992.54
2017-12-13T01:02:57.108Z,992.52
2017-12-13T01:03:36.103Z,992.52
2017-12-13T01:04:36.091Z,992.53
2017-12-13T01:05:57.091Z,992.59
2017-12-13T01:06:36.065Z,992.60
2017-12-13T01:07:57.072Z,992.61
2017-12-13T01:08:36.062Z,992.58
2017-12-13T01:09:36.040Z,992.60
2017-12-13T01:10:57.050Z,992.62
2017-12-13T01:11:36.039Z,992.59
2017-12-13T01:12:57.032Z,992.62
2017-12-13T01:13:36.021Z,992.58
2017-12-13T01:14:36.012Z,992.56
2017-12-13T01:15:56.992Z,992.57
2017-12-13T01:16:36.000Z,992.56
2017-12-13T01:17:56.993Z,992.53
2017-12-13T01:18:35.978Z,992.52
2017-12-13T01:19:35.976Z,992.48
2017-12-13T01:20:56.971Z,992.49
2017-12-13T01:21:35.956Z,992.54
2017-12-13T01:22:56.951Z,992.55
2017-12-13T01:23:35.942Z,992.58
2017-12-13T01:24:35.932Z,992.58
2017-12-13T01:25:56.934Z,992.56
2017-12-13T01:26:35.930Z,992.52
2017-12-13T01:27:56.925Z,992.53
2017-12-13T01:28:35.900Z,992.56
2017-12-13T01:29:35.900Z,992.58
2017-12-13T01:30:56.899Z,992.60
2017-12-13T01:31:35.883Z,992.63
2017-12-13T01:32:56.882Z,992.67
2017-12-13T01:33:35.868Z,992.69
2017-12-13T01:34:35.862Z,992.75
2017-12-13T01:35:56.853Z,992.71
2017-12-13T01:36:35.841Z,992.72
2017-12-13T01:37:56.834Z,992.73
2017-12-13T01:38:35.823Z,992.70
2017-12-13T01:39:35.818Z,992.71
2017-12-13T01:40:56.849Z,992.74
2017-12-13T01:41:35.815Z,992.77
2017-12-13T01:42:56.807Z,992.74
2017-12-13T01:43:35.785Z,992.74
2017-12-13T01:44:35.780Z,992.81
2017-12-13T01:45:56.779Z,992.75
2017-12-13T01:46:35.764Z,992.77
2017-12-13T01:47:56.759Z,992.72
2017-12-13T01:48:35.774Z,992.74
2017-12-13T01:49:35.738Z,992.73
2017-12-13T01:50:56.740Z,992.72
2017-12-13T01:51:35.727Z,992.75
2017-12-13T01:52:56.726Z,992.74
2017-12-13T01:53:35.715Z,992.75
2017-12-13T01:54:35.704Z,992.79
2017-12-13T01:55:56.702Z,992.79
2017-12-13T01:56:35.721Z,992.76
2017-12-13T01:57:56.718Z,992.75
2017-12-13T01:58:35.709Z,992.78
2017-12-13T01:59:35.696Z,992.76
2017-12-13T02:00:56.670Z,992.77
2017-12-13T02:01:35.678Z,992.74
2017-12-13T02:02:56.647Z,992.78
2017-12-13T02:03:35.665Z,992.74
2017-12-13T02:04:35.620Z,992.77
2017-12-13T02:05:56.628Z,992.76
2017-12-13T02:06:35.612Z,992.77
2017-12-13T02:07:56.616Z,992.79
2017-12-13T02:08:35.614Z,992.80
2017-12-13T02:09:35.586Z,992.76
2017-12-13T02:10:56.590Z,992.81
2017-12-13T02:11:35.575Z,992.79
2017-12-13T02:12:56.574Z,992.80
2017-12-13T02:13:35.552Z,992.68
2017-12-13T02:14:35.548Z,992.72
2017-12-13T02:15:56.552Z,992.74
2017-12-13T02:16:35.539Z,992.72
2017-12-13T02:17:56.538Z,992.66
2017-12-13T02:18:35.511Z,992.69
2017-12-13T02:19:35.508Z,992.66
2017-12-13T02:20:56.502Z,992.63
2017-12-13T02:23:07.002Z,992.59
2017-12-13T02:24:06.979Z,992.57
2017-12-13T02:26:10.404Z,992.56
2017-12-13T02:26:59.850Z,992.50
2017-12-13T02:28:52.726Z,992.46
2017-12-13T02:29:52.704Z,992.47
2017-12-13T02:31:45.586Z,992.35
2017-12-13T02:32:45.565Z,992.34
2017-12-13T02:34:38.441Z,992.34
2017-12-13T02:35:38.437Z,992.33
2017-12-13T02:37:31.313Z,992.33
2017-12-13T02:38:31.291Z,992.37
2017-12-13T02:40:24.163Z,992.34
2017-12-13T02:41:24.153Z,992.39
2017-12-13T02:43:17.031Z,992.35
2017-12-13T02:44:17.020Z,992.33
2017-12-13T02:46:09.887Z,992.29
2017-12-13T02:47:09.875Z,992.31
2017-12-13T02:49:02.757Z,992.30
2017-12-13T02:50:02.732Z,992.30
2017-12-13T02:51:55.622Z,992.33
2017-12-13T02:52:55.601Z,992.31
2017-12-13T02:54:48.483Z,992.29
2017-12-13T02:55:48.464Z,992.24
2017-12-13T02:57:42.343Z,992.22
2017-12-13T02:58:42.318Z,992.18
2017-12-13T03:00:35.190Z,992.15
2017-12-13T03:01:35.178Z,992.18
2017-12-13T03:03:28.059Z,992.17
2017-12-13T03:04:28.036Z,992.15
2017-12-13T03:06:20.914Z,992.14
2017-12-13T03:07:20.903Z,992.08
2017-12-13T03:09:13.783Z,992.09
2017-12-13T03:10:13.764Z,992.07
2017-12-13T03:12:06.660Z,992.02
2017-12-13T03:13:06.626Z,991.97
2017-12-13T03:14:59.515Z,991.94
2017-12-13T03:15:59.494Z,991.95
2017-12-13T03:17:53.366Z,991.91
2017-12-13T03:18:53.344Z,991.90
2017-12-13T03:20:46.217Z,991.89
2017-12-13T03:21:46.205Z,991.93
2017-12-13T03:23:39.091Z,991.98
2017-12-13T03:24:39.069Z,991.97
2017-12-13T03:26:31.945Z,991.96
2017-12-13T03:27:31.935Z,991.90
2017-12-13T03:29:24.818Z,991.87
2017-12-13T03:30:24.799Z,991.88
2017-12-13T03:32:17.667Z,991.83
2017-12-13T03:33:17.655Z,991.77
2017-12-13T03:35:10.539Z,991.78
2017-12-13T03:36:10.517Z,991.73
2017-12-13T03:38:03.401Z,991.73
2017-12-13T03:39:03.379Z,991.76
2017-12-13T03:40:56.253Z,991.72
2017-12-13T03:41:56.239Z,991.61
2017-12-13T03:42:56.232Z,991.60
2017-12-13T03:43:56.226Z,991.62
2017-12-13T03:44:56.217Z,991.61
2017-12-13T03:45:56.227Z,991.61
2017-12-13T03:46:56.220Z,991.61
2017-12-13T03:47:56.196Z,991.65
2017-12-13T03:48:56.189Z,991.68
2017-12-13T03:49:56.179Z,991.68
2017-12-13T03:50:56.172Z,991.68
2017-12-13T03:51:56.168Z,991.66
2017-12-13T03:52:56.155Z,991.68
2017-12-13T03:53:56.149Z,991.65
2017-12-13T03:54:56.141Z,991.61
2017-12-13T03:55:56.132Z,991.60
2017-12-13T03:56:56.125Z,991.53
2017-12-13T03:57:56.123Z,991.48
2017-12-13T03:58:56.109Z,991.44
2017-12-13T03:59:56.100Z,991.46
2017-12-13T04:00:56.094Z,991.48
2017-12-13T04:01:56.086Z,991.46
2017-12-13T04:02:56.078Z,991.48
2017-12-13T04:03:56.070Z,991.40
2017-12-13T04:04:56.063Z,991.40
2017-12-13T04:05:56.055Z,991.37
2017-12-13T04:06:56.045Z,991.33
2017-12-13T04:07:56.039Z,991.31
2017-12-13T04:08:56.031Z,991.28
2017-12-13T04:09:56.025Z,991.22
2017-12-13T04:10:56.016Z,991.27
2017-12-13T04:11:56.009Z,991.30
2017-12-13T04:12:56.003Z,991.24
2017-12-13T04:13:55.993Z,991.22
2017-12-13T04:14:55.986Z,991.25
2017-12-13T04:15:55.976Z,991.21
2017-12-13T04:16:55.974Z,991.18
2017-12-13T04:17:55.962Z,991.17
2017-12-13T04:18:55.955Z,991.21
2017-12-13T04:19:55.949Z,991.22
2017-12-13T04:20:55.940Z,991.25
2017-12-13T04:21:55.955Z,991.23
2017-12-13T04:22:55.925Z,991.19
2017-12-13T04:23:55.916Z,991.17
2017-12-13T04:24:55.908Z,991.13
2017-12-13T04:25:55.903Z,991.16
2017-12-13T04:26:55.893Z,991.18
2017-12-13T04:27:55.889Z,991.15
2017-12-13T04:28:55.880Z,991.15
2017-12-13T04:29:55.871Z,991.16
2017-12-13T04:30:55.863Z,991.19
2017-12-13T04:31:55.857Z,991.15
2017-12-13T04:32:55.849Z,991.18
2017-12-13T04:33:55.842Z,991.17
2017-12-13T04:34:55.835Z,991.17
2017-12-13T04:35:55.825Z,991.15
2017-12-13T04:36:55.821Z,991.17
2017-12-13T04:37:55.812Z,991.19
2017-12-13T04:38:55.810Z,991.24
2017-12-13T04:39:55.798Z,991.22
2017-12-13T04:40:55.788Z,991.23
2017-12-13T04:41:55.783Z,991.22
2017-12-13T04:42:55.774Z,991.25
2017-12-13T04:43:55.768Z,991.26
2017-12-13T04:44:55.760Z,991.24
2017-12-13T04:45:55.753Z,991.23
2017-12-13T04:46:55.743Z,991.25
2017-12-13T04:47:55.738Z,991.27
2017-12-13T04:48:55.731Z,991.27
2017-12-13T04:49:55.721Z,991.25
2017-12-13T04:50:55.714Z,991.23
2017-12-13T04:51:55.707Z,991.24
2017-12-13T04:52:55.700Z,991.22
2017-12-13T04:53:55.693Z,991.27
2017-12-13T04:54:55.686Z,991.17
2017-12-13T04:55:55.676Z,991.23
2017-12-13T04:56:55.672Z,991.18
2017-12-13T04:57:55.663Z,991.16
2017-12-13T04:58:55.654Z,991.13
2017-12-13T04:59:55.649Z,991.22
2017-12-13T05:00:55.643Z,991.18
2017-12-13T05:01:55.635Z,991.15
2017-12-13T05:02:55.628Z,991.13
2017-12-13T05:03:55.620Z,991.16
2017-12-13T05:04:55.614Z,991.18
2017-12-13T05:05:55.607Z,991.17
2017-12-13T05:06:55.600Z,991.21
2017-12-13T05:07:55.594Z,991.20
2017-12-13T05:08:55.586Z,991.23
2017-12-13T05:09:55.631Z,991.23
2017-12-13T05:10:55.573Z,991.26
2017-12-13T05:11:55.568Z,991.26
2017-12-13T05:12:55.559Z,991.23
2017-12-13T05:13:55.554Z,991.17
2017-12-13T05:14:55.546Z,991.17
2017-12-13T05:15:55.539Z,991.14
2017-12-13T05:16:55.533Z,991.14
2017-12-13T05:17:55.525Z,991.12
2017-12-13T05:18:55.520Z,991.13
2017-12-13T05:19:55.513Z,991.12
2017-12-13T05:20:55.508Z,991.10
2017-12-13T05:21:55.500Z,991.10
2017-12-13T05:22:55.493Z,991.11
2017-12-13T05:23:55.487Z,991.10
2017-12-13T05:24:55.479Z,991.08
2017-12-13T05:25:55.472Z,991.12
2017-12-13T05:26:55.466Z,991.11
2017-12-13T05:27:55.459Z,991.11
2017-12-13T05:28:55.459Z,991.08
2017-12-13T05:29:55.447Z,991.10
2017-12-13T05:30:55.440Z,991.09
2017-12-13T05:31:55.433Z,991.02
2017-12-13T05:32:55.426Z,991.11
2017-12-13T05:33:55.422Z,991.04
2017-12-13T05:34:55.412Z,991.04
2017-12-13T05:35:55.407Z,991.00
2017-12-13T05:36:55.403Z,991.03
2017-12-13T05:37:55.400Z,991.04
2017-12-13T05:38:55.386Z,990.98
2017-12-13T05:39:55.381Z,991.01
2017-12-13T05:40:55.376Z,990.97
2017-12-13T05:41:55.368Z,990.97
2017-12-13T05:42:55.360Z,991.01
2017-12-13T05:43:55.355Z,990.99
2017-12-13T05:44:55.347Z,990.95
2017-12-13T05:45:55.341Z,990.96
2017-12-13T05:46:55.335Z,990.98
2017-12-13T05:47:55.329Z,991.00
2017-12-13T05:48:55.323Z,991.01
2017-12-13T05:49:55.317Z,990.97
2017-12-13T05:50:55.311Z,990.93
2017-12-13T05:51:55.302Z,990.93
2017-12-13T05:52:55.296Z,990.86
2017-12-13T05:53:55.291Z,990.84
2017-12-13T05:54:55.284Z,990.82
2017-12-13T05:55:55.279Z,990.83
2017-12-13T05:56:55.271Z,990.80
2017-12-13T05:57:55.266Z,990.80
2017-12-13T05:58:55.258Z,990.78
2017-12-13T05:59:55.252Z,990.82
2017-12-13T06:00:55.247Z,990.84
2017-12-13T06:01:55.242Z,990.82
2017-12-13T06:02:55.233Z,990.86
2017-12-13T06:03:55.227Z,990.81
2017-12-13T06:04:55.222Z,990.83
2017-12-13T06:05:55.216Z,990.83
2017-12-13T06:06:55.209Z,990.81
2017-12-13T06:07:55.201Z,990.82
2017-12-13T06:08:55.196Z,990.84
2017-12-13T06:09:55.192Z,990.82
2017-12-13T06:10:55.182Z,990.83
2017-12-13T06:11:55.177Z,990.83
2017-12-13T06:12:55.170Z,990.85
2017-12-13T06:13:55.166Z,990.81
2017-12-13T06:14:55.157Z,990.82
2017-12-13T06:15:55.151Z,990.78
2017-12-13T06:16:55.144Z,990.76
2017-12-13T06:17:55.142Z,990.79
2017-12-13T06:18:55.131Z,990.77
2017-12-13T06:19:55.126Z,990.70
2017-12-13T06:20:55.119Z,990.69
2017-12-13T06:21:55.113Z,990.68
2017-12-13T06:22:55.108Z,990.64
2017-12-13T06:23:55.100Z,990.64
2017-12-13T06:24:55.095Z,990.59
2017-12-13T06:25:55.093Z,990.55
2017-12-13T06:26:55.081Z,990.54
2017-12-13T06:27:55.075Z,990.55
2017-12-13T06:28:55.069Z,990.51
2017-12-13T06:29:55.063Z,990.51
2017-12-13T06:30:55.056Z,990.44
2017-12-13T06:31:55.068Z,990.45
2017-12-13T06:32:55.045Z,990.44
2017-12-13T06:33:55.038Z,990.43
2017-12-13T06:34:55.031Z,990.47
2017-12-13T06:35:55.026Z,990.43
2017-12-13T06:36:55.018Z,990.47
2017-12-13T06:37:55.043Z,990.45
2017-12-13T06:38:55.006Z,990.49
2017-12-13T06:39:54.999Z,990.46
2017-12-13T06:40:54.993Z,990.44
2017-12-13T06:41:54.988Z,990.45
2017-12-13T06:42:54.981Z,990.43
2017-12-13T06:43:54.973Z,990.42
2017-12-13T06:44:54.968Z,990.44
2017-12-13T06:45:54.963Z,990.40
2017-12-13T06:46:54.955Z,990.41
2017-12-13T06:47:54.950Z,990.36
2017-12-13T06:48:54.943Z,990.30
2017-12-13T06:49:54.938Z,990.35
2017-12-13T06:50:54.930Z,990.30
2017-12-13T06:51:54.924Z,990.29
2017-12-13T06:52:54.917Z,990.29
2017-12-13T06:53:54.912Z,990.23
2017-12-13T06:54:54.905Z,990.20
2017-12-13T06:55:54.918Z,990.22
2017-12-13T06:56:54.894Z,990.22
2017-12-13T06:57:54.887Z,990.20
2017-12-13T06:58:54.880Z,990.15
2017-12-13T06:59:54.875Z,990.18
2017-12-13T07:00:54.867Z,990.18
2017-12-13T07:01:54.862Z,990.18
2017-12-13T07:02:54.855Z,990.18
2017-12-13T07:03:54.846Z,990.18
2017-12-13T07:04:54.843Z,990.17
2017-12-13T07:05:54.837Z,990.15
2017-12-13T07:06:54.830Z,990.15
2017-12-13T07:07:54.823Z,990.20
2017-12-13T07:08:54.818Z,990.14
2017-12-13T07:09:54.811Z,990.13
2017-12-13T07:10:54.804Z,990.18
2017-12-13T07:11:54.799Z,990.13
2017-12-13T07:12:54.793Z,990.11
2017-12-13T07:13:54.787Z,990.11
2017-12-13T07:14:54.781Z,990.07
2017-12-13T07:15:54.774Z,990.10
2017-12-13T07:16:54.769Z,990.10
2017-12-13T07:17:54.761Z,990.10
2017-12-13T07:18:54.756Z,990.10
2017-12-13T07:19:54.749Z,990.12
2017-12-13T07:20:54.743Z,990.05
2017-12-13T07:21:54.737Z,990.09
2017-12-13T07:22:54.730Z,990.01
2017-12-13T07:23:54.725Z,990.03
2017-12-13T07:24:54.719Z,990.00
2017-12-13T07:25:54.712Z,990.02
2017-12-13T07:26:54.706Z,990.01
2017-12-13T07:27:54.706Z,989.96
2017-12-13T07:28:54.693Z,989.95
2017-12-13T07:29:54.688Z,989.92
2017-12-13T07:30:54.684Z,989.88
2017-12-13T07:31:54.674Z,989.91
2017-12-13T07:32:54.669Z,989.90
2017-12-13T07:33:54.663Z,989.87
2017-12-13T07:34:54.655Z,989.85
2017-12-13T07:35:54.649Z,989.83
2017-12-13T07:36:54.644Z,989.94
2017-12-13T07:37:54.639Z,989.89
2017-12-13T07:38:54.630Z,989.86
2017-12-13T07:39:54.688Z,989.83
2017-12-13T07:40:54.618Z,989.84
2017-12-13T07:41:54.613Z,989.85
2017-12-13T07:42:54.605Z,989.88
2017-12-13T07:43:54.601Z,989.84
2017-12-13T07:44:54.592Z,989.88
2017-12-13T07:45:54.588Z,989.84
2017-12-13T07:46:54.581Z,989.82
2017-12-13T07:47:54.575Z,989.84
2017-12-13T07:48:54.569Z,989.82
2017-12-13T07:49:54.566Z,989.83
2017-12-13T07:50:54.556Z,989.82
2017-12-13T07:51:54.550Z,989.78
2017-12-13T07:52:54.547Z,989.78
2017-12-13T07:53:54.538Z,989.81
2017-12-13T07:54:54.531Z,989.70
2017-12-13T07:55:54.525Z,989.77
2017-12-13T07:56:54.519Z,989.72
2017-12-13T07:57:54.513Z,989.64
2017-12-13T07:58:54.506Z,989.68
2017-12-13T07:59:54.507Z,989.59
2017-12-13T08:00:54.495Z,989.56
2017-12-13T08:01:54.489Z,989.59
2017-12-13T08:02:54.482Z,989.55
2017-12-13T08:03:54.476Z,989.62
2017-12-13T08:04:54.526Z,989.57
2017-12-13T08:05:54.462Z,989.51
2017-12-13T08:06:54.457Z,989.59
2017-12-13T08:07:54.451Z,989.55
2017-12-13T08:08:54.446Z,989.51
2017-12-13T08:09:54.439Z,989.55
2017-12-13T08:10:54.434Z,989.52
2017-12-13T08:11:54.427Z,989.46
2017-12-13T08:12:54.420Z,989.42
2017-12-13T08:13:54.413Z,989.42
2017-12-13T08:14:54.410Z,989.52
2017-12-13T08:15:54.401Z,989.46
2017-12-13T08:16:54.395Z,989.47
2017-12-13T08:17:54.397Z,989.35
2017-12-13T08:18:54.383Z,989.37
2017-12-13T08:19:54.378Z,989.34
2017-12-13T08:20:54.377Z,989.28
2017-12-13T08:21:54.364Z,989.31
2017-12-13T08:22:54.357Z,989.23
2017-12-13T08:23:54.353Z,989.22
2017-12-13T08:24:54.345Z,989.18
2017-12-13T08:25:54.339Z,989.14
2017-12-13T08:26:54.333Z,989.16
2017-12-13T08:27:54.330Z,989.15
2017-12-13T08:28:54.321Z,989.12
2017-12-13T08:29:54.315Z,989.11
2017-12-13T08:30:54.307Z,989.11
2017-12-13T08:31:54.302Z,988.99
2017-12-13T08:32:54.296Z,988.98
2017-12-13T08:33:54.291Z,988.99
2017-12-13T08:34:54.284Z,988.97
2017-12-13T08:35:54.278Z,988.92
2017-12-13T08:36:54.270Z,988.94
2017-12-13T08:37:54.267Z,988.91
2017-12-13T08:38:54.259Z,988.90
2017-12-13T08:39:54.253Z,988.83
2017-12-13T08:40:54.246Z,988.79
2017-12-13T08:41:54.240Z,988.77
2017-12-13T08:42:54.234Z,988.78
2017-12-13T08:43:54.231Z,988.68
2017-12-13T08:44:54.222Z,988.67
2017-12-13T08:45:54.217Z,988.63
2017-12-13T08:46:54.210Z,988.68
2017-12-13T08:47:54.205Z,988.64
2017-12-13T08:48:54.198Z,988.62
2017-12-13T08:49:54.191Z,988.57
2017-12-13T08:50:54.184Z,988.55
2017-12-13T08:51:54.179Z,988.54
2017-12-13T08:52:54.173Z,988.52
2017-12-13T08:53:54.167Z,988.48
2017-12-13T08:54:54.162Z,988.53
2017-12-13T08:55:54.154Z,988.49
2017-12-13T08:56:54.151Z,988.47
2017-12-13T08:57:54.167Z,988.43
2017-12-13T08:58:54.135Z,988.46
2017-12-13T08:59:54.131Z,988.44
2017-12-13T09:00:54.134Z,988.51
2017-12-13T09:01:54.117Z,988.47
2017-12-13T09:02:54.139Z,988.45
2017-12-13T09:03:54.105Z,988.47
2017-12-13T09:04:54.100Z,988.37
2017-12-13T09:05:54.094Z,988.43
2017-12-13T09:06:54.088Z,988.35
2017-12-13T09:07:54.082Z,988.35
2017-12-13T09:08:54.076Z,988.28
2017-12-13T09:09:54.072Z,988.31
2017-12-13T09:10:54.061Z,988.25
2017-12-13T09:11:54.060Z,988.25
2017-12-13T09:12:54.053Z,988.27
2017-12-13T09:13:54.048Z,988.15
2017-12-13T09:14:54.040Z,988.23
2017-12-13T09:15:54.034Z,988.25
2017-12-13T09:16:54.029Z,988.25
2017-12-13T09:17:54.023Z,988.17
2017-12-13T09:18:54.018Z,988.21
2017-12-13T09:19:54.012Z,988.24
2017-12-13T09:20:54.012Z,988.25
2017-12-13T09:21:54.002Z,988.17
2017-12-13T09:22:53.997Z,988.11
2017-12-13T09:23:53.993Z,988.08
2017-12-13T09:24:53.987Z,988.04
2017-12-13T09:25:53.981Z,988.07
2017-12-13T09:26:53.975Z,988.01
2017-12-13T09:27:53.971Z,988.02
2017-12-13T09:28:53.967Z,987.85
2017-12-13T09:29:53.961Z,987.84
2017-12-13T09:30:53.955Z,987.74
2017-12-13T09:31:53.949Z,987.76
2017-12-13T09:32:53.946Z,987.72
2017-12-13T09:33:53.942Z,987.65
2017-12-13T09:34:53.937Z,987.60
2017-12-13T09:35:53.933Z,987.59
2017-12-13T09:36:53.929Z,987.66
2017-12-13T09:37:53.925Z,987.64
2017-12-13T09:38:53.920Z,987.59
2017-12-13T09:39:53.918Z,987.53
2017-12-13T09:40:53.912Z,987.57
2017-12-13T09:41:53.910Z,987.53
2017-12-13T09:42:53.903Z,987.48
2017-12-13T09:43:53.903Z,987.50
2017-12-13T09:44:53.900Z,987.54
2017-12-13T09:45:53.896Z,987.56
2017-12-13T09:46:53.891Z,987.52
2017-12-13T09:47:53.887Z,987.52
2017-12-13T09:48:53.884Z,987.53
2017-12-13T09:49:53.881Z,987.56
2017-12-13T09:50:53.878Z,987.58
2017-12-13T09:51:53.874Z,987.55
2017-12-13T09:52:53.870Z,987.51
2017-12-13T09:53:53.868Z,987.48
2017-12-13T09:54:53.862Z,987.44
2017-12-13T09:55:53.860Z,987.35
2017-12-13T09:56:53.855Z,987.37
2017-12-13T09:57:53.856Z,987.37
2017-12-13T09:58:53.853Z,987.30
2017-12-13T09:59:53.843Z,987.41
2017-12-13T10:00:53.842Z,987.29
2017-12-13T10:01:53.837Z,987.24
2017-12-13T10:02:53.833Z,987.20
2017-12-13T10:03:53.830Z,987.18
2017-12-13T10:04:53.826Z,987.27
2017-12-13T10:05:53.822Z,987.25
2017-12-13T10:06:53.819Z,987.19
2017-12-13T10:07:53.815Z,987.17
2017-12-13T10:08:53.811Z,987.21
2017-12-13T10:09:53.808Z,987.13
2017-12-13T10:10:53.803Z,987.08
2017-12-13T10:11:53.800Z,987.06
2017-12-13T10:12:53.798Z,987.07
2017-12-13T10:13:53.792Z,987.08
2017-12-13T10:14:53.791Z,987.00
2017-12-13T10:15:53.784Z,986.99
2017-12-13T10:16:53.781Z,986.94
2017-12-13T10:17:53.777Z,986.94
2017-12-13T10:18:53.771Z,986.98
2017-12-13T10:19:53.771Z,986.91
2017-12-13T10:20:53.763Z,986.95
2017-12-13T10:21:53.763Z,986.93
2017-12-13T10:22:53.754Z,986.93
2017-12-13T10:23:53.751Z,986.93
2017-12-13T10:24:53.747Z,986.92
2017-12-13T10:25:53.742Z,986.87
2017-12-13T10:26:53.736Z,986.87
2017-12-13T10:27:53.733Z,986.87
2017-12-13T10:28:53.730Z,986.85
2017-12-13T10:29:53.724Z,986.83
2017-12-13T10:30:53.720Z,986.79
2017-12-13T10:31:53.716Z,986.75
2017-12-13T10:32:53.712Z,986.70
2017-12-13T10:33:53.707Z,986.76
2017-12-13T10:34:53.702Z,986.65
2017-12-13T10:35:53.697Z,986.65
2017-12-13T10:36:53.692Z,986.66
2017-12-13T10:37:53.688Z,986.68
2017-12-13T10:38:53.683Z,986.61
2017-12-13T10:39:53.679Z,986.56
2017-12-13T10:40:53.676Z,986.51
2017-12-13T10:41:53.671Z,986.51
2017-12-13T10:42:53.664Z,986.29
2017-12-13T10:43:53.661Z,986.28
2017-12-13T10:44:53.655Z,986.23
2017-12-13T10:45:53.650Z,986.22
2017-12-13T10:46:53.644Z,986.28
2017-12-13T10:47:53.641Z,986.20
2017-12-13T10:48:53.637Z,986.27
2017-12-13T10:49:53.630Z,986.17
2017-12-13T10:50:53.625Z,986.21
2017-12-13T10:51:53.620Z,986.14
2017-12-13T10:52:53.617Z,986.07
2017-12-13T10:53:53.612Z,986.12
2017-12-13T10:54:53.606Z,986.01
2017-12-13T10:55:53.600Z,986.01
2017-12-13T10:56:53.595Z,986.03
2017-12-13T10:57:53.597Z,985.90
2017-12-13T10:58:53.612Z,985.93
2017-12-13T10:59:53.579Z,985.90
2017-12-13T11:00:53.575Z,985.88
2017-12-13T11:01:53.586Z,985.85
2017-12-13T11:02:53.571Z,985.86
2017-12-13T11:03:53.603Z,985.87
2017-12-13T11:04:53.557Z,985.84
2017-12-13T11:05:53.606Z,985.84
2017-12-13T11:06:53.546Z,985.80
2017-12-13T11:07:53.554Z,985.75
2017-12-13T11:08:53.535Z,985.73
2017-12-13T11:09:53.526Z,985.69
2017-12-13T11:10:53.528Z,985.64
2017-12-13T11:11:53.555Z,985.65
2017-12-13T11:12:53.513Z,985.56
2017-12-13T11:13:53.529Z,985.52
2017-12-13T11:14:53.503Z,985.51
2017-12-13T11:15:53.506Z,985.60
2017-12-13T11:16:53.503Z,985.44
2017-12-13T11:17:53.489Z,985.44
2017-12-13T11:18:53.478Z,985.52
2017-12-13T11:19:53.476Z,985.51
2017-12-13T11:20:53.473Z,985.45
2017-12-13T11:21:53.467Z,985.33
2017-12-13T11:22:53.462Z,985.26
2017-12-13T11:23:53.456Z,985.25
2017-12-13T11:24:53.451Z,985.19
2017-12-13T11:25:53.445Z,985.21
2017-12-13T11:26:53.441Z,985.23
2017-12-13T11:27:53.436Z,985.22
2017-12-13T11:28:53.430Z,985.11
2017-12-13T11:29:53.425Z,985.18
2017-12-13T11:30:53.421Z,985.05
2017-12-13T11:31:53.415Z,985.07
2017-12-13T11:32:53.408Z,985.02
2017-12-13T11:33:53.404Z,984.95
2017-12-13T11:34:53.398Z,984.93
2017-12-13T11:35:53.394Z,984.86
2017-12-13T11:36:53.386Z,984.85
2017-12-13T11:37:53.383Z,984.92
2017-12-13T11:38:53.376Z,984.76
2017-12-13T11:39:53.370Z,984.70
2017-12-13T11:40:53.366Z,984.75
2017-12-13T11:41:53.360Z,984.62
2017-12-13T11:42:53.355Z,984.61
2017-12-13T11:43:53.349Z,984.56
2017-12-13T11:44:53.344Z,984.61
2017-12-13T11:45:53.352Z,984.53
2017-12-13T11:46:53.332Z,984.44
2017-12-13T11:47:53.329Z,984.45
2017-12-13T11:48:53.321Z,984.50
2017-12-13T11:49:53.316Z,984.43
2017-12-13T11:50:53.310Z,984.43
2017-12-13T11:51:53.303Z,984.46
2017-12-13T11:52:53.332Z,984.38
2017-12-13T11:53:53.295Z,984.32
2017-12-13T11:54:53.287Z,984.31
2017-12-13T11:55:53.280Z,984.27
2017-12-13T11:56:53.277Z,984.43
2017-12-13T11:57:53.272Z,984.22
2017-12-13T11:58:53.266Z,984.27
2017-12-13T11:59:53.261Z,984.18
2017-12-13T12:00:53.253Z,984.23
2017-12-13T12:01:53.250Z,984.10
2017-12-13T12:02:53.242Z,984.01
2017-12-13T12:03:53.237Z,984.03
2017-12-13T12:04:53.232Z,984.06
2017-12-13T12:05:53.227Z,983.94
2017-12-13T12:06:53.221Z,983.96
2017-12-13T12:07:53.216Z,983.95
2017-12-13T12:08:53.209Z,983.89
2017-12-13T12:09:53.204Z,983.96
2017-12-13T12:10:53.199Z,983.90
2017-12-13T12:11:53.190Z,983.83
2017-12-13T12:12:53.187Z,983.87
2017-12-13T12:13:53.181Z,983.73
2017-12-13T12:14:53.174Z,983.74
2017-12-13T12:15:53.169Z,983.76
2017-12-13T12:16:53.163Z,983.70
2017-12-13T12:17:53.162Z,983.79
2017-12-13T12:18:53.153Z,983.72
2017-12-13T12:19:53.146Z,983.79
2017-12-13T12:20:53.139Z,983.79
2017-12-13T12:21:53.136Z,983.66
2017-12-13T12:22:53.130Z,983.59
2017-12-13T12:23:53.123Z,983.58
2017-12-13T12:24:53.117Z,983.54
2017-12-13T12:25:53.113Z,983.58
2017-12-13T12:26:53.107Z,983.60
2017-12-13T12:27:53.100Z,983.56
2017-12-13T12:28:53.096Z,983.52
2017-12-13T12:29:53.091Z,983.43
2017-12-13T12:30:53.083Z,983.48
2017-12-13T12:31:53.077Z,983.44
2017-12-13T12:32:53.071Z,983.45
2017-12-13T12:33:53.067Z,983.40
2017-12-13T12:34:53.059Z,983.33
2017-12-13T12:35:53.055Z,983.32
2017-12-13T12:36:53.050Z,983.31
2017-12-13T12:37:53.045Z,983.24
2017-12-13T12:38:53.037Z,983.17
2017-12-13T12:39:53.034Z,983.17
2017-12-13T12:40:53.026Z,983.20
2017-12-13T12:41:53.019Z,983.12
2017-12-13T12:42:53.015Z,983.10
2017-12-13T12:43:53.009Z,983.11
2017-12-13T12:44:53.001Z,983.05
2017-12-13T12:45:52.996Z,983.02
2017-12-13T12:46:52.990Z,983.02
2017-12-13T12:47:52.985Z,983.02
2017-12-13T12:48:52.980Z,982.92
2017-12-13T12:49:52.974Z,982.95
2017-12-13T12:50:52.969Z,982.81
2017-12-13T12:51:52.963Z,982.87
2017-12-13T12:52:52.956Z,982.81
2017-12-13T12:53:52.951Z,982.74